Concepcion del Bermejo, Argentina
Current Conditions -  °F | °C
As of 7:00 PM on Wednesday 28 Jan 2015 (Local Time) from SARE Reporting Station
Thunderstorm Thunderstorm  
Wind Chill: 26°   Ceiling: 4500
Heat Index: 28°   Visibility: 5mi
Dew Point: 25°   Wind: 2mph
Humidity: 94%   Direction: 200°SSW
Pressure: 29.71"   Gusts: NA
Location:  26.56°S, 61.06°W
Report Text: SARE 282200Z 20002KT 8000 -TSRA BKN045 FEW056CB BKN200 26/25 Q1006
Loading
Personal Weather Stations






























Interactive Weather Map New forecast layout! Learn more

10-Day Weather Forecast

Advertisements
Track Severe Weather on mobile